sensor_id;sensor_type;location;lat;lon;timestamp;temperature;humidity
78212;SHT31;67490;52.086;5.122;2023-04-03T00:01:06;7.40;57.78
78212;SHT31;67490;52.086;5.122;2023-04-03T00:03:52;7.40;58.27
78212;SHT31;67490;52.086;5.122;2023-04-03T00:06:36;7.33;58.43
78212;SHT31;67490;52.086;5.122;2023-04-03T00:09:20;7.31;58.97
78212;SHT31;67490;52.086;5.122;2023-04-03T00:12:05;7.31;58.47
78212;SHT31;67490;52.086;5.122;2023-04-03T00:14:49;7.16;58.36
78212;SHT31;67490;52.086;5.122;2023-04-03T00:17:34;7.20;58.90
78212;SHT31;67490;52.086;5.122;2023-04-03T00:20:20;7.12;58.29
78212;SHT31;67490;52.086;5.122;2023-04-03T00:23:04;7.20;58.75
78212;SHT31;67490;52.086;5.122;2023-04-03T00:25:49;7.16;58.56
78212;SHT31;67490;52.086;5.122;2023-04-03T00:28:34;7.19;59.12
78212;SHT31;67490;52.086;5.122;2023-04-03T00:31:18;7.06;58.47
78212;SHT31;67490;52.086;5.122;2023-04-03T00:34:03;7.05;58.43
78212;SHT31;67490;52.086;5.122;2023-04-03T00:36:48;7.07;58.85
78212;SHT31;67490;52.086;5.122;2023-04-03T00:39:33;7.07;59.58
78212;SHT31;67490;52.086;5.122;2023-04-03T00:42:18;7.22;59.01
78212;SHT31;67490;52.086;5.122;2023-04-03T00:45:30;7.20;58.64
78212;SHT31;67490;52.086;5.122;2023-04-03T00:48:18;7.10;58.17
78212;SHT31;67490;52.086;5.122;2023-04-03T00:51:06;7.06;58.77
78212;SHT31;67490;52.086;5.122;2023-04-03T00:53:56;7.07;58.54
78212;SHT31;67490;52.086;5.122;2023-04-03T00:56:43;7.13;58.13
78212;SHT31;67490;52.086;5.122;2023-04-03T00:59:33;7.00;58.11
78212;SHT31;67490;52.086;5.122;2023-04-03T01:02:18;6.75;58.84
78212;SHT31;67490;52.086;5.122;2023-04-03T01:05:03;6.86;59.00
78212;SHT31;67490;52.086;5.122;2023-04-03T01:07:51;6.98;58.62
78212;SHT31;67490;52.086;5.122;2023-04-03T01:10:38;6.98;58.29
78212;SHT31;67490;52.086;5.122;2023-04-03T01:13:26;6.88;58.95
78212;SHT31;67490;52.086;5.122;2023-04-03T01:16:10;6.95;58.29
78212;SHT31;67490;52.086;5.122;2023-04-03T01:18:54;6.85;59.22
78212;SHT31;67490;52.086;5.122;2023-04-03T01:22:03;6.71;59.39
78212;SHT31;67490;52.086;5.122;2023-04-03T01:24:51;6.75;60.15
78212;SHT31;67490;52.086;5.122;2023-04-03T01:27:38;6.71;59.69
78212;SHT31;67490;52.086;5.122;2023-04-03T01:30:30;6.74;59.47
78212;SHT31;67490;52.086;5.122;2023-04-03T01:33:16;6.76;58.80
78212;SHT31;67490;52.086;5.122;2023-04-03T01:36:03;6.81;59.21
78212;SHT31;67490;52.086;5.122;2023-04-03T01:38:48;6.84;59.11
78212;SHT31;67490;52.086;5.122;2023-04-03T01:41:32;6.74;59.31
78212;SHT31;67490;52.086;5.122;2023-04-03T01:44:17;6.82;59.62
78212;SHT31;67490;52.086;5.122;2023-04-03T01:47:01;6.55;59.68
78212;SHT31;67490;52.086;5.122;2023-04-03T01:49:47;6.57;59.42
78212;SHT31;67490;52.086;5.122;2023-04-03T01:52:31;6.71;59.18
78212;SHT31;67490;52.086;5.122;2023-04-03T01:55:16;6.74;60.13
78212;SHT31;67490;52.086;5.122;2023-04-03T01:58:00;6.78;59.98
78212;SHT31;67490;52.086;5.122;2023-04-03T02:00:44;6.92;59.95
78212;SHT31;67490;52.086;5.122;2023-04-03T02:03:29;6.78;59.00
78212;SHT31;67490;52.086;5.122;2023-04-03T02:06:15;6.91;59.83
78212;SHT31;67490;52.086;5.122;2023-04-03T02:08:59;6.95;59.55
78212;SHT31;67490;52.086;5.122;2023-04-03T02:11:44;7.03;59.24
78212;SHT31;67490;52.086;5.122;2023-04-03T02:14:28;6.99;59.75
78212;SHT31;67490;52.086;5.122;2023-04-03T02:17:13;6.76;59.33
78212;SHT31;67490;52.086;5.122;2023-04-03T02:19:57;6.72;60.17
78212;SHT31;67490;52.086;5.122;2023-04-03T02:22:43;6.69;59.58
78212;SHT31;67490;52.086;5.122;2023-04-03T02:25:27;6.65;60.42
78212;SHT31;67490;52.086;5.122;2023-04-03T02:28:12;6.78;60.53
78212;SHT31;67490;52.086;5.122;2023-04-03T02:30:56;6.49;60.42
78212;SHT31;67490;52.086;5.122;2023-04-03T02:33:41;6.48;60.68
78212;SHT31;67490;52.086;5.122;2023-04-03T02:36:25;6.45;61.03
78212;SHT31;67490;52.086;5.122;2023-04-03T02:39:11;6.63;61.03
78212;SHT31;67490;52.086;5.122;2023-04-03T02:41:56;6.48;61.39
78212;SHT31;67490;52.086;5.122;2023-04-03T02:44:40;6.49;62.05
78212;SHT31;67490;52.086;5.122;2023-04-03T02:47:24;6.54;61.11
78212;SHT31;67490;52.086;5.122;2023-04-03T02:50:09;6.57;61.68
78212;SHT31;67490;52.086;5.122;2023-04-03T02:52:53;6.67;60.59
78212;SHT31;67490;52.086;5.122;2023-04-03T02:55:39;6.64;61.39
78212;SHT31;67490;52.086;5.122;2023-04-03T02:58:24;6.67;60.88
78212;SHT31;67490;52.086;5.122;2023-04-03T03:01:09;6.45;61.54
78212;SHT31;67490;52.086;5.122;2023-04-03T03:03:54;6.31;61.92
78212;SHT31;67490;52.086;5.122;2023-04-03T03:06:38;6.36;61.70
78212;SHT31;67490;52.086;5.122;2023-04-03T03:09:22;6.21;62.66
78212;SHT31;67490;52.086;5.122;2023-04-03T03:12:08;6.31;62.13
78212;SHT31;67490;52.086;5.122;2023-04-03T03:14:53;6.20;62.56
78212;SHT31;67490;52.086;5.122;2023-04-03T03:17:38;6.30;62.66
78212;SHT31;67490;52.086;5.122;2023-04-03T03:20:22;6.42;62.32
78212;SHT31;67490;52.086;5.122;2023-04-03T03:23:06;6.45;62.04
78212;SHT31;67490;52.086;5.122;2023-04-03T03:25:54;6.44;62.01
78212;SHT31;67490;52.086;5.122;2023-04-03T03:28:40;6.37;62.86
78212;SHT31;67490;52.086;5.122;2023-04-03T03:31:25;6.38;62.84
78212;SHT31;67490;52.086;5.122;2023-04-03T03:34:10;6.51;62.58
78212;SHT31;67490;52.086;5.122;2023-04-03T03:36:54;6.42;62.46
78212;SHT31;67490;52.086;5.122;2023-04-03T03:39:39;6.31;62.58
78212;SHT31;67490;52.086;5.122;2023-04-03T03:42:23;6.44;62.95
78212;SHT31;67490;52.086;5.122;2023-04-03T03:45:10;6.34;62.50
78212;SHT31;67490;52.086;5.122;2023-04-03T03:47:54;6.38;62.82
78212;SHT31;67490;52.086;5.122;2023-04-03T03:50:39;6.21;63.73
78212;SHT31;67490;52.086;5.122;2023-04-03T03:53:23;6.28;62.73
78212;SHT31;67490;52.086;5.122;2023-04-03T03:56:08;6.21;63.41
78212;SHT31;67490;52.086;5.122;2023-04-03T03:58:53;6.23;62.96
78212;SHT31;67490;52.086;5.122;2023-04-03T04:01:39;6.14;63.37
78212;SHT31;67490;52.086;5.122;2023-04-03T04:04:23;6.10;63.35
78212;SHT31;67490;52.086;5.122;2023-04-03T04:07:08;6.06;63.63
78212;SHT31;67490;52.086;5.122;2023-04-03T04:09:52;6.14;64.64
78212;SHT31;67490;52.086;5.122;2023-04-03T04:12:37;6.03;65.14
78212;SHT31;67490;52.086;5.122;2023-04-03T04:15:21;6.05;64.39
78212;SHT31;67490;52.086;5.122;2023-04-03T04:18:08;6.14;63.52
78212;SHT31;67490;52.086;5.122;2023-04-03T04:20:53;6.14;64.12
78212;SHT31;67490;52.086;5.122;2023-04-03T04:23:37;6.03;63.90
78212;SHT31;67490;52.086;5.122;2023-04-03T04:26:22;5.90;64.55
78212;SHT31;67490;52.086;5.122;2023-04-03T04:29:08;5.89;64.35
78212;SHT31;67490;52.086;5.122;2023-04-03T04:31:53;5.95;64.19
78212;SHT31;67490;52.086;5.122;2023-04-03T04:34:39;5.96;64.26
78212;SHT31;67490;52.086;5.122;2023-04-03T04:37:23;5.75;64.75
78212;SHT31;67490;52.086;5.122;2023-04-03T04:40:09;5.76;65.20
78212;SHT31;67490;52.086;5.122;2023-04-03T04:42:53;5.79;64.84
78212;SHT31;67490;52.086;5.122;2023-04-03T04:45:38;5.69;65.46
78212;SHT31;67490;52.086;5.122;2023-04-03T04:48:22;5.63;65.76
78212;SHT31;67490;52.086;5.122;2023-04-03T04:51:08;5.73;65.29
78212;SHT31;67490;52.086;5.122;2023-04-03T04:53:53;5.59;66.01
78212;SHT31;67490;52.086;5.122;2023-04-03T04:56:37;5.63;65.04
78212;SHT31;67490;52.086;5.122;2023-04-03T04:59:22;5.63;65.49
78212;SHT31;67490;52.086;5.122;2023-04-03T05:02:07;5.59;65.51
78212;SHT31;67490;52.086;5.122;2023-04-03T05:04:51;5.63;65.54
78212;SHT31;67490;52.086;5.122;2023-04-03T05:07:37;5.63;65.26
78212;SHT31;67490;52.086;5.122;2023-04-03T05:10:22;5.65;65.21
78212;SHT31;67490;52.086;5.122;2023-04-03T05:13:06;5.62;65.46
78212;SHT31;67490;52.086;5.122;2023-04-03T05:15:51;5.63;65.75
78212;SHT31;67490;52.086;5.122;2023-04-03T05:18:36;5.56;65.88
78212;SHT31;67490;52.086;5.122;2023-04-03T05:21:20;5.69;65.79
78212;SHT31;67490;52.086;5.122;2023-04-03T05:24:08;5.70;65.59
78212;SHT31;67490;52.086;5.122;2023-04-03T05:26:53;5.48;66.14
78212;SHT31;67490;52.086;5.122;2023-04-03T05:29:37;5.47;66.63
78212;SHT31;67490;52.086;5.122;2023-04-03T05:32:22;5.56;65.98
78212;SHT31;67490;52.086;5.122;2023-04-03T05:35:07;5.51;65.79
78212;SHT31;67490;52.086;5.122;2023-04-03T05:37:52;5.45;66.36
78212;SHT31;67490;52.086;5.122;2023-04-03T05:40:38;5.49;66.30
78212;SHT31;67490;52.086;5.122;2023-04-03T05:43:22;5.66;65.73
78212;SHT31;67490;52.086;5.122;2023-04-03T05:46:09;5.76;65.20
78212;SHT31;67490;52.086;5.122;2023-04-03T05:48:54;5.86;64.99
78212;SHT31;67490;52.086;5.122;2023-04-03T05:51:39;5.90;64.94
78212;SHT31;67490;52.086;5.122;2023-04-03T05:54:26;5.82;64.96
78212;SHT31;67490;52.086;5.122;2023-04-03T05:57:12;5.78;64.68
78212;SHT31;67490;52.086;5.122;2023-04-03T05:59:56;5.99;64.72
78212;SHT31;67490;52.086;5.122;2023-04-03T06:02:41;6.06;64.29
78212;SHT31;67490;52.086;5.122;2023-04-03T06:05:26;6.11;64.04
78212;SHT31;67490;52.086;5.122;2023-04-03T06:08:11;6.07;64.67
78212;SHT31;67490;52.086;5.122;2023-04-03T06:10:55;6.00;64.12
78212;SHT31;67490;52.086;5.122;2023-04-03T06:13:41;5.97;65.13
78212;SHT31;67490;52.086;5.122;2023-04-03T06:16:25;5.95;63.87
78212;SHT31;67490;52.086;5.122;2023-04-03T06:19:11;6.23;63.33
78212;SHT31;67490;52.086;5.122;2023-04-03T06:21:56;6.30;63.31
78212;SHT31;67490;52.086;5.122;2023-04-03T06:24:41;6.27;62.72
78212;SHT31;67490;52.086;5.122;2023-04-03T06:27:25;6.36;62.41
78212;SHT31;67490;52.086;5.122;2023-04-03T06:30:11;6.16;63.50
78212;SHT31;67490;52.086;5.122;2023-04-03T06:32:56;6.18;62.71
78212;SHT31;67490;52.086;5.122;2023-04-03T06:35:40;6.23;62.36
78212;SHT31;67490;52.086;5.122;2023-04-03T06:38:25;6.44;61.70
78212;SHT31;67490;52.086;5.122;2023-04-03T06:41:09;6.41;61.72
78212;SHT31;67490;52.086;5.122;2023-04-03T06:43:54;6.47;61.12
78212;SHT31;67490;52.086;5.122;2023-04-03T06:46:43;6.28;60.79
78212;SHT31;67490;52.086;5.122;2023-04-03T06:49:27;6.34;61.12
78212;SHT31;67490;52.086;5.122;2023-04-03T06:52:13;6.48;60.53
78212;SHT31;67490;52.086;5.122;2023-04-03T06:54:57;6.58;60.30
78212;SHT31;67490;52.086;5.122;2023-04-03T06:57:43;6.86;60.01
78212;SHT31;67490;52.086;5.122;2023-04-03T07:00:28;6.69;59.54
78212;SHT31;67490;52.086;5.122;2023-04-03T07:03:14;6.51;59.62
78212;SHT31;67490;52.086;5.122;2023-04-03T07:05:58;6.63;59.36
78212;SHT31;67490;52.086;5.122;2023-04-03T07:08:43;6.74;59.05
78212;SHT31;67490;52.086;5.122;2023-04-03T07:11:28;6.98;59.11
78212;SHT31;67490;52.086;5.122;2023-04-03T07:14:13;7.03;58.98
78212;SHT31;67490;52.086;5.122;2023-04-03T07:16:58;7.17;57.67
78212;SHT31;67490;52.086;5.122;2023-04-03T07:19:43;7.12;58.03
78212;SHT31;67490;52.086;5.122;2023-04-03T07:22:28;7.09;58.53
78212;SHT31;67490;52.086;5.122;2023-04-03T07:25:13;7.09;58.00
78212;SHT31;67490;52.086;5.122;2023-04-03T07:27:57;7.42;57.84
78212;SHT31;67490;52.086;5.122;2023-04-03T07:30:43;7.50;56.65
78212;SHT31;67490;52.086;5.122;2023-04-03T07:33:28;7.73;56.28
78212;SHT31;67490;52.086;5.122;2023-04-03T07:36:17;7.82;56.17
78212;SHT31;67490;52.086;5.122;2023-04-03T07:39:02;7.70;55.64
78212;SHT31;67490;52.086;5.122;2023-04-03T07:41:47;7.77;55.08
78212;SHT31;67490;52.086;5.122;2023-04-03T07:44:31;7.61;54.33
78212;SHT31;67490;52.086;5.122;2023-04-03T07:47:16;7.58;54.71
78212;SHT31;67490;52.086;5.122;2023-04-03T07:50:02;8.02;54.61
78212;SHT31;67490;52.086;5.122;2023-04-03T07:52:48;8.24;53.19
78212;SHT31;67490;52.086;5.122;2023-04-03T07:55:32;8.26;53.32
78212;SHT31;67490;52.086;5.122;2023-04-03T07:58:18;8.13;52.80
78212;SHT31;67490;52.086;5.122;2023-04-03T08:01:03;8.19;51.92
78212;SHT31;67490;52.086;5.122;2023-04-03T08:03:48;8.12;51.99
78212;SHT31;67490;52.086;5.122;2023-04-03T08:06:32;8.09;52.21
78212;SHT31;67490;52.086;5.122;2023-04-03T08:09:21;8.30;50.72
78212;SHT31;67490;52.086;5.122;2023-04-03T08:12:06;8.37;50.25
78212;SHT31;67490;52.086;5.122;2023-04-03T08:14:51;8.26;49.37
78212;SHT31;67490;52.086;5.122;2023-04-03T08:17:36;8.25;49.79
78212;SHT31;67490;52.086;5.122;2023-04-03T08:20:20;8.30;48.18
78212;SHT31;67490;52.086;5.122;2023-04-03T08:23:05;8.49;48.27
78212;SHT31;67490;52.086;5.122;2023-04-03T08:25:51;8.76;48.97
78212;SHT31;67490;52.086;5.122;2023-04-03T08:28:36;8.97;48.75
78212;SHT31;67490;52.086;5.122;2023-04-03T08:31:21;9.11;50.63
78212;SHT31;67490;52.086;5.122;2023-04-03T08:34:06;9.08;44.93
78212;SHT31;67490;52.086;5.122;2023-04-03T08:36:51;9.15;44.08
78212;SHT31;67490;52.086;5.122;2023-04-03T08:39:35;9.31;46.70
78212;SHT31;67490;52.086;5.122;2023-04-03T08:42:36;9.46;45.25
78212;SHT31;67490;52.086;5.122;2023-04-03T08:45:31;9.34;42.57
78212;SHT31;67490;52.086;5.122;2023-04-03T08:48:25;9.21;42.52
78212;SHT31;67490;52.086;5.122;2023-04-03T08:51:15;9.10;41.42
78212;SHT31;67490;52.086;5.122;2023-04-03T08:54:05;9.28;41.95
78212;SHT31;67490;52.086;5.122;2023-04-03T08:56:53;9.28;41.26
78212;SHT31;67490;52.086;5.122;2023-04-03T08:59:39;9.16;40.81
78212;SHT31;67490;52.086;5.122;2023-04-03T09:02:31;9.24;39.41
78212;SHT31;67490;52.086;5.122;2023-04-03T09:05:20;9.03;38.31
78212;SHT31;67490;52.086;5.122;2023-04-03T09:08:14;9.29;38.10
78212;SHT31;67490;52.086;5.122;2023-04-03T09:11:14;9.60;37.57
78212;SHT31;67490;52.086;5.122;2023-04-03T09:14:07;9.83;36.71
78212;SHT31;67490;52.086;5.122;2023-04-03T09:16:57;9.69;35.02
78212;SHT31;67490;52.086;5.122;2023-04-03T09:19:54;9.83;36.19
78212;SHT31;67490;52.086;5.122;2023-04-03T09:22:43;9.83;35.33
78212;SHT31;67490;52.086;5.122;2023-04-03T09:25:31;9.65;32.43
78212;SHT31;67490;52.086;5.122;2023-04-03T09:28:17;9.62;33.02
78212;SHT31;67490;52.086;5.122;2023-04-03T09:31:03;9.62;32.31
78212;SHT31;67490;52.086;5.122;2023-04-03T09:33:59;9.86;32.67
78212;SHT31;67490;52.086;5.122;2023-04-03T09:36:48;9.96;32.98
78212;SHT31;67490;52.086;5.122;2023-04-03T09:39:50;9.93;32.66
78212;SHT31;67490;52.086;5.122;2023-04-03T09:42:40;10.15;33.96
78212;SHT31;67490;52.086;5.122;2023-04-03T09:45:29;10.34;33.56
78212;SHT31;67490;52.086;5.122;2023-04-03T09:48:17;10.21;32.50
78212;SHT31;67490;52.086;5.122;2023-04-03T09:51:03;10.04;34.07
78212;SHT31;67490;52.086;5.122;2023-04-03T09:53:48;10.07;33.89
78212;SHT31;67490;52.086;5.122;2023-04-03T09:56:33;10.05;35.70
78212;SHT31;67490;52.086;5.122;2023-04-03T09:59:19;10.48;32.59
78212;SHT31;67490;52.086;5.122;2023-04-03T10:05:34;10.68;32.67
78212;SHT31;67490;52.086;5.122;2023-04-03T10:08:28;10.96;31.86
78212;SHT31;67490;52.086;5.122;2023-04-03T10:11:15;10.92;32.59
78212;SHT31;67490;52.086;5.122;2023-04-03T10:14:02;11.00;31.32
78212;SHT31;67490;52.086;5.122;2023-04-03T10:16:59;10.93;33.24
78212;SHT31;67490;52.086;5.122;2023-04-03T10:19:51;10.88;31.62
78212;SHT31;67490;52.086;5.122;2023-04-03T10:22:48;11.02;29.81
78212;SHT31;67490;52.086;5.122;2023-04-03T10:25:47;10.79;29.75
78212;SHT31;67490;52.086;5.122;2023-04-03T10:28:41;10.61;30.93
78212;SHT31;67490;52.086;5.122;2023-04-03T10:31:37;10.79;31.60
78212;SHT31;67490;52.086;5.122;2023-04-03T10:34:31;10.95;31.43
78212;SHT31;67490;52.086;5.122;2023-04-03T10:37:24;11.19;30.32
78212;SHT31;67490;52.086;5.122;2023-04-03T10:40:19;11.35;27.27
78212;SHT31;67490;52.086;5.122;2023-04-03T10:43:14;11.14;29.55
78212;SHT31;67490;52.086;5.122;2023-04-03T10:46:05;11.10;27.44
78212;SHT31;67490;52.086;5.122;2023-04-03T10:49:17;11.14;27.74
78212;SHT31;67490;52.086;5.122;2023-04-03T10:52:14;10.96;27.70
78212;SHT31;67490;52.086;5.122;2023-04-03T10:55:15;11.26;29.09
78212;SHT31;67490;52.086;5.122;2023-04-03T10:58:05;11.24;26.55
78212;SHT31;67490;52.086;5.122;2023-04-03T11:00:57;10.99;25.41
78212;SHT31;67490;52.086;5.122;2023-04-03T11:03:49;11.00;27.01
78212;SHT31;67490;52.086;5.122;2023-04-03T11:06:41;11.09;27.74
78212;SHT31;67490;52.086;5.122;2023-04-03T11:09:31;10.80;26.43
78212;SHT31;67490;52.086;5.122;2023-04-03T11:12:23;11.17;25.61
78212;SHT31;67490;52.086;5.122;2023-04-03T11:15:14;11.50;26.76
78212;SHT31;67490;52.086;5.122;2023-04-03T11:18:04;11.33;27.33
78212;SHT31;67490;52.086;5.122;2023-04-03T11:20:58;11.34;26.62
78212;SHT31;67490;52.086;5.122;2023-04-03T11:23:45;11.45;27.19
78212;SHT31;67490;52.086;5.122;2023-04-03T11:26:38;11.75;27.47
78212;SHT31;67490;52.086;5.122;2023-04-03T11:29:31;11.38;28.31
78212;SHT31;67490;52.086;5.122;2023-04-03T11:32:50;11.48;27.47
78212;SHT31;67490;52.086;5.122;2023-04-03T11:35:43;11.50;29.84
78212;SHT31;67490;52.086;5.122;2023-04-03T11:38:32;11.55;29.04
78212;SHT31;67490;52.086;5.122;2023-04-03T11:41:26;11.54;28.65
78212;SHT31;67490;52.086;5.122;2023-04-03T11:44:31;11.58;29.22
78212;SHT31;67490;52.086;5.122;2023-04-03T11:47:44;11.57;30.18
78212;SHT31;67490;52.086;5.122;2023-04-03T11:50:44;11.52;28.30
78212;SHT31;67490;52.086;5.122;2023-04-03T11:53:34;11.61;28.75
78212;SHT31;67490;52.086;5.122;2023-04-03T11:56:29;11.47;29.76
78212;SHT31;67490;52.086;5.122;2023-04-03T11:59:24;11.72;30.25
78212;SHT31;67490;52.086;5.122;2023-04-03T12:02:36;11.72;29.50
78212;SHT31;67490;52.086;5.122;2023-04-03T12:05:27;11.86;30.23
78212;SHT31;67490;52.086;5.122;2023-04-03T12:08:26;11.79;30.37
78212;SHT31;67490;52.086;5.122;2023-04-03T12:11:24;11.38;30.30
78212;SHT31;67490;52.086;5.122;2023-04-03T12:14:15;11.43;31.68
78212;SHT31;67490;52.086;5.122;2023-04-03T12:17:00;11.88;31.39
78212;SHT31;67490;52.086;5.122;2023-04-03T12:19:45;11.96;30.36
78212;SHT31;67490;52.086;5.122;2023-04-03T12:22:31;11.81;29.87
78212;SHT31;67490;52.086;5.122;2023-04-03T12:25:47;11.81;29.80
78212;SHT31;67490;52.086;5.122;2023-04-03T12:28:37;11.48;30.03
78212;SHT31;67490;52.086;5.122;2023-04-03T12:31:25;11.67;30.22
78212;SHT31;67490;52.086;5.122;2023-04-03T12:34:46;11.79;31.74
78212;SHT31;67490;52.086;5.122;2023-04-03T12:37:47;11.85;30.11
78212;SHT31;67490;52.086;5.122;2023-04-03T12:40:41;11.88;28.95
78212;SHT31;67490;52.086;5.122;2023-04-03T12:43:55;11.89;30.29
78212;SHT31;67490;52.086;5.122;2023-04-03T12:46:46;11.91;30.07
78212;SHT31;67490;52.086;5.122;2023-04-03T12:49:37;12.16;30.87
78212;SHT31;67490;52.086;5.122;2023-04-03T12:52:32;11.92;28.98
78212;SHT31;67490;52.086;5.122;2023-04-03T12:55:19;11.86;29.23
78212;SHT31;67490;52.086;5.122;2023-04-03T12:58:14;11.60;29.43
78212;SHT31;67490;52.086;5.122;2023-04-03T13:01:03;11.78;30.12
78212;SHT31;67490;52.086;5.122;2023-04-03T13:03:55;11.98;30.77
78212;SHT31;67490;52.086;5.122;2023-04-03T13:06:42;11.92;30.87
78212;SHT31;67490;52.086;5.122;2023-04-03T13:09:29;11.82;30.61
78212;SHT31;67490;52.086;5.122;2023-04-03T13:12:15;11.83;31.20
78212;SHT31;67490;52.086;5.122;2023-04-03T13:15:02;11.74;31.05
78212;SHT31;67490;52.086;5.122;2023-04-03T13:17:50;11.68;30.63
78212;SHT31;67490;52.086;5.122;2023-04-03T13:20:37;11.77;30.33
78212;SHT31;67490;52.086;5.122;2023-04-03T13:23:21;11.82;30.92
78212;SHT31;67490;52.086;5.122;2023-04-03T13:26:08;11.96;31.58
78212;SHT31;67490;52.086;5.122;2023-04-03T13:28:56;11.89;31.32
78212;SHT31;67490;52.086;5.122;2023-04-03T13:31:43;11.99;31.63
78212;SHT31;67490;52.086;5.122;2023-04-03T13:34:36;12.03;29.46
78212;SHT31;67490;52.086;5.122;2023-04-03T13:37:24;11.58;30.14
78212;SHT31;67490;52.086;5.122;2023-04-03T13:40:11;11.60;30.03
78212;SHT31;67490;52.086;5.122;2023-04-03T13:43:06;11.72;31.81
78212;SHT31;67490;52.086;5.122;2023-04-03T13:45:57;11.57;30.95
78212;SHT31;67490;52.086;5.122;2023-04-03T13:48:44;11.79;32.08
78212;SHT31;67490;52.086;5.122;2023-04-03T13:51:31;11.77;31.58
78212;SHT31;67490;52.086;5.122;2023-04-03T13:54:20;11.78;31.76
78212;SHT31;67490;52.086;5.122;2023-04-03T13:57:14;11.85;32.19
78212;SHT31;67490;52.086;5.122;2023-04-03T13:59:58;12.05;31.80
78212;SHT31;67490;52.086;5.122;2023-04-03T14:02:47;12.12;30.97
78212;SHT31;67490;52.086;5.122;2023-04-03T14:05:32;12.08;30.83
78212;SHT31;67490;52.086;5.122;2023-04-03T14:08:18;11.88;31.81
78212;SHT31;67490;52.086;5.122;2023-04-03T14:11:03;12.03;30.83
78212;SHT31;67490;52.086;5.122;2023-04-03T14:13:48;11.88;31.39
78212;SHT31;67490;52.086;5.122;2023-04-03T14:16:38;11.99;31.88
78212;SHT31;67490;52.086;5.122;2023-04-03T14:19:25;11.98;31.39
78212;SHT31;67490;52.086;5.122;2023-04-03T14:22:16;11.99;32.05
78212;SHT31;67490;52.086;5.122;2023-04-03T14:25:02;11.82;31.89
78212;SHT31;67490;52.086;5.122;2023-04-03T14:27:49;11.92;31.55
78212;SHT31;67490;52.086;5.122;2023-04-03T14:30:34;11.96;31.03
78212;SHT31;67490;52.086;5.122;2023-04-03T14:33:21;11.98;31.25
78212;SHT31;67490;52.086;5.122;2023-04-03T14:36:12;11.81;31.36
78212;SHT31;67490;52.086;5.122;2023-04-03T14:38:58;11.83;31.60
78212;SHT31;67490;52.086;5.122;2023-04-03T14:41:45;11.82;31.36
78212;SHT31;67490;52.086;5.122;2023-04-03T14:44:30;12.11;31.81
78212;SHT31;67490;52.086;5.122;2023-04-03T14:47:17;12.01;30.51
78212;SHT31;67490;52.086;5.122;2023-04-03T14:50:06;11.93;30.55
78212;SHT31;67490;52.086;5.122;2023-04-03T14:52:53;11.89;30.81
78212;SHT31;67490;52.086;5.122;2023-04-03T14:55:38;11.86;32.03
78212;SHT31;67490;52.086;5.122;2023-04-03T14:58:24;11.96;31.62
78212;SHT31;67490;52.086;5.122;2023-04-03T15:01:10;12.06;31.44
78212;SHT31;67490;52.086;5.122;2023-04-03T15:03:54;11.98;30.77
78212;SHT31;67490;52.086;5.122;2023-04-03T15:06:39;11.92;31.09
78212;SHT31;67490;52.086;5.122;2023-04-03T15:09:26;12.16;31.86
78212;SHT31;67490;52.086;5.122;2023-04-03T15:12:12;12.28;31.82
78212;SHT31;67490;52.086;5.122;2023-04-03T15:14:58;12.46;31.83
78212;SHT31;67490;52.086;5.122;2023-04-03T15:17:43;12.37;31.56
78212;SHT31;67490;52.086;5.122;2023-04-03T15:20:29;12.23;32.13
78212;SHT31;67490;52.086;5.122;2023-04-03T15:23:16;11.98;31.85
78212;SHT31;67490;52.086;5.122;2023-04-03T15:26:01;11.99;33.02
78212;SHT31;67490;52.086;5.122;2023-04-03T15:28:46;12.05;33.35
78212;SHT31;67490;52.086;5.122;2023-04-03T15:31:33;11.99;32.05
78212;SHT31;67490;52.086;5.122;2023-04-03T15:34:17;12.08;32.89
78212;SHT31;67490;52.086;5.122;2023-04-03T15:37:02;11.96;32.87
78212;SHT31;67490;52.086;5.122;2023-04-03T15:39:46;11.98;33.98
78212;SHT31;67490;52.086;5.122;2023-04-03T15:42:31;12.03;33.85
78212;SHT31;67490;52.086;5.122;2023-04-03T15:45:16;11.93;33.69
78212;SHT31;67490;52.086;5.122;2023-04-03T15:48:03;11.95;33.59
78212;SHT31;67490;52.086;5.122;2023-04-03T15:50:48;11.86;33.83
78212;SHT31;67490;52.086;5.122;2023-04-03T15:53:32;12.03;34.42
78212;SHT31;67490;52.086;5.122;2023-04-03T15:56:17;11.79;33.37
78212;SHT31;67490;52.086;5.122;2023-04-03T15:59:01;11.67;33.24
78212;SHT31;67490;52.086;5.122;2023-04-03T16:01:46;11.81;33.45
78212;SHT31;67490;52.086;5.122;2023-04-03T16:04:34;11.58;32.95
78212;SHT31;67490;52.086;5.122;2023-04-03T16:07:18;11.74;35.26
78212;SHT31;67490;52.086;5.122;2023-04-03T16:10:04;11.74;34.87
78212;SHT31;67490;52.086;5.122;2023-04-03T16:12:49;11.52;35.05
78212;SHT31;67490;52.086;5.122;2023-04-03T16:15:34;11.48;34.62
78212;SHT31;67490;52.086;5.122;2023-04-03T16:18:19;11.60;35.13
78212;SHT31;67490;52.086;5.122;2023-04-03T16:21:06;11.43;34.67
78212;SHT31;67490;52.086;5.122;2023-04-03T16:23:52;11.44;33.92
78212;SHT31;67490;52.086;5.122;2023-04-03T16:26:37;11.54;34.53
78212;SHT31;67490;52.086;5.122;2023-04-03T16:29:21;11.37;35.41
78212;SHT31;67490;52.086;5.122;2023-04-03T16:32:06;11.35;35.43
78212;SHT31;67490;52.086;5.122;2023-04-03T16:34:51;11.31;35.50
78212;SHT31;67490;52.086;5.122;2023-04-03T16:37:37;11.44;35.21
78212;SHT31;67490;52.086;5.122;2023-04-03T16:40:22;11.37;35.37
78212;SHT31;67490;52.086;5.122;2023-04-03T16:43:07;11.45;35.61
78212;SHT31;67490;52.086;5.122;2023-04-03T16:45:52;11.55;35.41
78212;SHT31;67490;52.086;5.122;2023-04-03T16:48:36;11.61;36.36
78212;SHT31;67490;52.086;5.122;2023-04-03T16:51:21;11.35;35.56
78212;SHT31;67490;52.086;5.122;2023-04-03T16:54:07;11.67;36.48
78212;SHT31;67490;52.086;5.122;2023-04-03T16:56:54;11.58;36.44
78212;SHT31;67490;52.086;5.122;2023-04-03T16:59:39;11.31;37.16
78212;SHT31;67490;52.086;5.122;2023-04-03T17:02:24;11.20;37.30
78212;SHT31;67490;52.086;5.122;2023-04-03T17:05:09;11.28;37.40
78212;SHT31;67490;52.086;5.122;2023-04-03T17:07:53;10.96;38.49
78212;SHT31;67490;52.086;5.122;2023-04-03T17:10:39;11.07;37.83
78212;SHT31;67490;52.086;5.122;2023-04-03T17:13:24;11.09;37.23
78212;SHT31;67490;52.086;5.122;2023-04-03T17:16:16;11.04;37.49
78212;SHT31;67490;52.086;5.122;2023-04-03T17:19:00;11.13;37.66
78212;SHT31;67490;52.086;5.122;2023-04-03T17:21:45;11.12;38.01
78212;SHT31;67490;52.086;5.122;2023-04-03T17:24:30;11.17;37.77
78212;SHT31;67490;52.086;5.122;2023-04-03T17:27:16;11.28;38.07
78212;SHT31;67490;52.086;5.122;2023-04-03T17:30:00;11.17;38.16
78212;SHT31;67490;52.086;5.122;2023-04-03T17:32:45;11.12;38.45
78212;SHT31;67490;52.086;5.122;2023-04-03T17:35:29;11.03;38.06
78212;SHT31;67490;52.086;5.122;2023-04-03T17:38:14;10.96;38.78
78212;SHT31;67490;52.086;5.122;2023-04-03T17:41:01;10.95;38.53
78212;SHT31;67490;52.086;5.122;2023-04-03T17:43:46;10.77;38.82
78212;SHT31;67490;52.086;5.122;2023-04-03T17:46:31;10.73;38.72
78212;SHT31;67490;52.086;5.122;2023-04-03T17:49:16;10.68;38.33
78212;SHT31;67490;52.086;5.122;2023-04-03T17:52:01;10.62;39.10